Weather

Rainfall Maps have ended for the season and will begin again on May 1st.

DAILY 7 DAY TOTAL
onrain

Note: Some stations are located near irrigated fields and may also report irrigation

Alliston Mount Forest Blyth Guelph Grand Bend Strathroy Woodstock Belmont Simcoe Leamington Chatham West Lorne






Woodstock Outdoor FS - Historical Weather Data
Date Max Temp (°C) Min Temp (°C) Avg Temp (°C) Rain (mm) 7Day Rain(mm) Total Rain(mm) Avg RH (%)
10/31/2022 14.6 5.7 10.6 0.0 0.0 363.4 95.4
10/30/2022 16.3 0.1 7.7 0.0 0.0 363.4 78.7
10/29/2022 16.2 -2.2 6.4 0.0 0.0 363.4 82.5
10/28/2022 11.7 0.3 4.5 0.0 0.0 363.4 79.9
10/27/2022 9.9 1.5 5.6 0.0 0.0 363.4 75.9
10/26/2022 14.5 6.7 11.6 0.0 0.0 363.4 87.0
10/25/2022 20.7 5.0 12.5 0.0 0.0 363.4 79.4
10/24/2022 21.1 2.7 11.4 0.0 1.2 363.4 76.3
10/23/2022 22.3 7.2 14.2 0.0 1.2 363.4 67.6
10/22/2022 19.0 9.7 14.3 0.0 1.2 363.4 64.5
10/21/2022 15.8 -2.3 8.0 0.0 5.2 363.4 73.9
10/20/2022 3.9 -1.6 2.2 0.0 5.6 363.4 89.0
10/19/2022 5.4 0.9 3.2 0.0 19.0 363.4 95.0
10/18/2022 5.0 2.7 3.8 1.2 30.6 363.4 93.1
10/17/2022 8.6 2.5 5.8 0.0 29.4 362.2 82.0
10/16/2022 14.1 2.3 8.1 0.0 29.4 362.2 71.9
10/15/2022 12.9 4.1 8.0 4.0 29.4 362.2 68.5
10/14/2022 12.6 2.4 7.7 0.4 25.4 358.2 64.6
10/13/2022 15.0 2.7 10.4 13.4 25.2 357.8 83.8
10/12/2022 18.9 13.3 16.1 11.6 11.8 344.4 73.3
10/11/2022 22.6 2.8 12.5 0.0 0.2 332.8 71.2
10/10/2022 15.8 3.1 9.2 0.0 0.2 332.8 74.1
10/9/2022 16.4 3.8 9.4 0.0 0.2 332.8 70.1
10/8/2022 11.2 0.0 5.6 0.0 0.2 332.8 75.9
10/7/2022 12.3 0.8 7.8 0.2 0.2 332.8 78.1
10/6/2022 22.6 10.2 15.4 0.0 0.0 332.6 72.5
10/5/2022 23.7 4.2 13.8 0.0 0.0 332.6 73.0
10/4/2022 19.3 0.7 8.5 0.0 0.2 332.6 73.0
10/3/2022 17.7 0.1 8.3 0.0 21.8 332.6 65.1
10/2/2022 15.6 2.8 10.7 0.0 48.4 332.6 60.2
10/1/2022 19.3 7.4 12.9 0.0 57.4 332.6 67.0
9/30/2022 19.0 2.1 9.9 0.0 57.4 332.6 72.2
9/29/2022 16.2 5.1 10.8 0.0 57.4 332.6 71.8
9/28/2022 13.2 7.6 10.4 0.2 58.0 332.6 86.6
9/27/2022 14.5 8.9 11.4 21.6 63.2 332.4 94.6
9/26/2022 13.6 7.9 10.8 26.6 41.6 310.8 93.7
9/25/2022 18.0 10.6 13.3 9.0 16.6 284.2 92.3
9/24/2022 16.3 4.5 10.8 0.0 7.6 275.2 79.7
9/23/2022 16.1 3.7 9.3 0.0 7.6 275.2 69.8
9/22/2022 17.1 6.2 12.2 0.6 7.6 275.2 75.3
9/21/2022 24.7 14.0 19.6 5.4 7.0 274.6 90.4
9/20/2022 25.6 10.8 17.9 0.0 1.6 269.2 80.1
9/19/2022 25.7 13.9 19.5 1.6 6.8 269.2 82.2
9/18/2022 25.4 18.1 21.6 0.0 17.0 267.6 81.1
9/17/2022 25.8 12.0 18.5 0.0 17.4 267.6 86.2
9/16/2022 26.6 8.3 17.7 0.0 17.4 267.6 82.7
9/15/2022 19.5 6.0 12.9 0.0 17.4 267.6 76.9
9/14/2022 22.9 11.0 16.5 0.0 17.4 267.6 82.3
9/13/2022 21.1 10.0 14.4 5.2 17.4 267.6 87.3
9/12/2022 22.8 11.4 18.9 11.8 12.2 262.4 88.1
9/11/2022 23.5 17.9 20.2 0.4 0.6 250.6 83.1
9/10/2022 28.6 13.6 20.8 0.0 0.2 250.2 78.2
9/9/2022 26.6 9.1 18.0 0.0 0.2 250.2 77.7
9/8/2022 26.4 9.4 18.0 0.0 0.2 250.2 76.3
9/7/2022 24.2 10.0 17.2 0.0 0.2 250.2 81.6
9/6/2022 25.7 12.6 18.7 0.0 0.2 250.2 72.3
9/5/2022 21.5 14.8 17.5 0.2 2.2 250.2 91.8
9/4/2022 19.3 15.1 17.4 0.0 3.6 250.0 97.6
9/3/2022 29.0 14.8 21.8 0.0 3.6 250.0 78.8
9/2/2022 27.5 12.4 19.8 0.0 3.6 250.0 73.5
9/1/2022 24.2 9.2 16.7 0.0 3.8 250.0 72.9
8/31/2022 25.6 14.1 19.6 0.0 3.8 250.0 73.5
8/30/2022 25.0 17.6 20.9 2.0 3.8 250.0 87.0
8/29/2022 27.4 19.2 23.5 1.6 1.8 248.0 84.0
8/28/2022 27.5 10.3 19.5 0.0 20.8 246.4 73.6
8/27/2022 23.9 9.8 16.8 0.0 28.2 246.4 67.6
8/26/2022 25.3 14.5 20.0 0.2 28.4 246.4 86.2
8/25/2022 26.9 15.8 21.0 0.0 28.2 246.2 84.9
8/24/2022 28.1 12.9 20.6 0.0 28.4 246.2 79.2
8/23/2022 26.0 14.8 20.4 0.0 28.4 246.2 81.3
8/22/2022 26.2 17.2 19.8 20.6 28.4 246.2 93.9
8/21/2022 23.2 17.5 20.1 7.4 7.8 225.6 91.5
8/20/2022 29.3 12.5 21.1 0.2 0.4 218.2 75.4
8/19/2022 27.8 12.5 20.0 0.0 0.2 218.0 76.2
8/18/2022 26.8 11.3 19.1 0.2 0.2 218.0 77.3
8/17/2022 26.3 13.8 18.9 0.0 0.0 217.8 80.6
8/16/2022 26.5 13.0 18.5 0.0 0.0 217.8 77.0
8/15/2022 27.1 14.5 20.0 0.0 0.0 217.8 61.8
8/14/2022 24.1 15.1 19.1 0.0 13.8 217.8 72.2
8/13/2022 24.0 8.1 17.1 0.0 13.8 217.8 70.5
8/12/2022 24.5 11.1 17.9 0.0 13.8 217.8 67.3
8/11/2022 23.9 14.0 19.1 0.0 13.8 217.8 72.4
8/10/2022 25.7 12.2 19.0 0.0 15.0 217.8 78.5
8/9/2022 23.1 15.7 18.8 0.0 33.8 217.8 80.3
8/8/2022 26.0 17.9 22.8 13.8 33.8 217.8 94.8
8/7/2022 29.8 21.2 25.0 0.0 35.2 204.0 89.7
8/6/2022 28.2 19.4 24.0 0.0 35.2 204.0 88.3
8/5/2022 28.5 21.1 23.7 0.0 35.2 204.0 88.7
8/4/2022 26.4 20.0 23.2 1.2 35.2 204.0 93.1
8/3/2022 28.2 12.4 19.9 18.8 34.8 202.8 87.4
8/2/2022 24.6 14.0 19.9 0.0 16.0 184.0 81.9
8/1/2022 26.8 16.2 21.6 15.2 16.0 184.0 84.4
7/31/2022 27.5 14.6 20.9 0.0 0.8 168.8 76.1
7/30/2022 25.2 12.5 19.3 0.0 4.0 168.8 75.1
7/29/2022 26.2 12.2 19.8 0.0 4.0 168.8 70.9
7/28/2022 27.4 17.9 22.7 0.8 4.0 168.8 77.0
7/27/2022 24.5 13.3 19.6 0.0 3.2 168.0 86.0
7/26/2022 25.7 10.9 19.0 0.0 36.2 168.0 73.4
7/25/2022 22.2 13.9 18.8 0.0 36.4 168.0 72.7
7/24/2022 27.8 19.3 23.0 3.2 44.0 168.0 88.0
7/23/2022 29.6 17.7 23.4 0.0 41.0 164.8 77.9
7/22/2022 29.4 15.5 23.0 0.0 41.0 164.8 71.0
7/21/2022 28.5 18.5 23.2 0.0 41.0 164.8 77.7
7/20/2022 28.7 20.3 24.1 33.0 41.0 164.8 83.0
7/19/2022 32.2 17.8 24.4 0.2 8.0 131.8 76.2
7/18/2022 27.4 18.7 22.0 7.6 9.8 131.6 83.2
7/17/2022 28.5 16.3 21.7 0.2 2.4 124.0 80.1
7/16/2022 28.5 13.6 21.9 0.0 2.2 123.8 63.2
7/15/2022 26.3 7.8 18.6 0.0 2.2 123.8 62.8
7/14/2022 26.4 9.6 18.4 0.0 2.2 123.8 64.8
7/13/2022 21.5 12.5 17.8 0.0 2.2 123.8 76.7
7/12/2022 25.6 18.6 21.7 2.0 2.2 123.8 77.5
7/11/2022 28.4 10.4 20.9 0.2 8.8 121.8 69.2
7/10/2022 27.0 9.4 19.2 0.0 8.8 121.6 58.8
7/9/2022 25.4 12.3 18.7 0.0 8.8 121.6 58.3
7/8/2022 26.4 13.8 20.5 0.0 8.8 121.6 75.9
7/7/2022 26.8 13.0 20.0 0.0 8.8 121.6 73.0
7/6/2022 24.3 15.3 19.5 0.0 8.8 121.6 83.2
7/5/2022 26.9 17.7 22.1 8.6 13.2 121.6 80.2
7/4/2022 28.1 12.2 21.1 0.2 4.6 113.0 68.7
7/3/2022 26.1 9.8 19.3 0.0 4.4 112.8 55.0
7/2/2022 26.3 11.4 20.4 0.0 7.4 112.8 60.5
7/1/2022 27.3 18.7 22.9 0.0 7.4 112.8 71.8
6/30/2022 29.2 13.4 21.4 0.0 7.4 112.8 70.2
6/29/2022 23.6 11.9 17.4 4.4 7.4 112.8 78.7
6/28/2022 24.1 7.4 15.9 0.0 3.0 108.4 69.2
6/27/2022 19.4 11.6 16.4 0.0 3.0 108.4 67.9
6/26/2022 27.9 14.9 22.2 3.0 3.6 108.4 74.7
6/25/2022 30.5 15.0 23.4 0.0 0.6 105.4 56.3
6/24/2022 29.2 9.2 20.4 0.0 0.6 105.4 59.3
6/23/2022 26.9 11.3 19.9 0.0 0.6 105.4 61.9
6/22/2022 30.2 18.3 25.8 0.0 0.6 105.4 63.4
6/21/2022 32.6 15.5 24.5 0.0 0.6 105.4 67.5
6/20/2022 18.7 13.4 16.6 0.6 0.6 105.4 67.7
6/19/2022 21.8 7.5 15.3 0.0 0.0 104.8 50.2
6/18/2022 18.8 9.6 13.9 0.0 1.4 104.8 53.4
6/17/2022 25.6 13.3 21.2 0.0 1.4 104.8 55.2
6/16/2022 30.4 22.8 26.2 0.0 1.4 104.8 67.0
6/15/2022 31.6 17.7 25.1 0.0 7.6 104.8 69.8
6/14/2022 26.9 16.4 21.6 0.0 13.4 104.8 56.0
6/13/2022 24.7 9.5 17.8 0.0 32.4 104.8 68.2
6/12/2022 23.7 13.8 18.7 1.4 37.2 104.8 80.8
6/11/2022 23.9 12.6 18.1 0.0 35.8 103.4 73.6
6/10/2022 22.0 8.5 15.7 0.0 35.8 103.4 72.9
6/9/2022 20.9 11.3 14.9 6.2 36.0 103.4 83.1
6/8/2022 21.1 9.5 15.3 5.8 29.8 97.2 81.1
6/7/2022 18.8 11.9 16.4 19.0 25.6 91.4 91.3
6/6/2022 23.2 12.7 17.6 4.8 6.6 72.4 77.7
6/5/2022 21.8 7.9 14.7 0.0 1.8 67.6 61.4
6/4/2022 19.7 5.5 13.4 0.0 1.8 67.6 52.8
6/3/2022 22.6 7.8 16.0 0.2 1.8 67.6 63.4
6/2/2022 19.6 9.3 14.1 0.0 8.6 67.4 58.9
6/1/2022 26.9 14.3 21.6 1.6 8.6 67.4 76.7
5/31/2022 30.0 18.0 24.6 0.0 7.0 65.8 65.0
5/30/2022 28.6 15.8 23.1 0.0 7.0 65.8 66.8
5/29/2022 24.0 11.4 18.7 0.0 7.0 65.8 71.9
5/28/2022 19.6 11.0 15.3 0.0 7.4 65.8 79.8
5/27/2022 22.5 14.9 17.5 7.0 13.4 65.8 92.5
5/26/2022 24.8 13.3 19.4 0.0 6.6 58.8 79.6
5/25/2022 19.6 7.9 14.2 0.0 7.4 58.8 75.6
5/24/2022 19.6 5.1 12.8 0.0 10.6 58.8 67.0
5/23/2022 15.7 7.0 11.2 0.0 10.6 58.8 66.8
5/22/2022 16.8 8.2 13.3 0.4 21.4 58.8 90.1
5/21/2022 26.6 15.7 20.4 6.0 21.6 58.4 82.4
5/20/2022 24.1 12.2 19.1 0.2 15.6 52.4 82.9
5/19/2022 20.5 8.8 13.8 0.8 15.4 52.2 87.2
5/18/2022 14.1 2.4 9.2 3.2 14.6 51.4 82.6
5/17/2022 14.9 5.9 10.7 0.0 11.4 48.2 70.0
5/16/2022 18.5 11.4 14.8 10.8 11.4 48.2 82.2
5/15/2022 28.5 13.1 20.7 0.6 1.6 37.4 67.2
5/14/2022 26.8 13.2 20.5 0.0 1.0 36.8 73.5
5/13/2022 27.1 11.5 20.1 0.0 1.0 36.8 61.2
5/12/2022 28.4 9.0 19.7 0.0 1.0 36.8 41.6
5/11/2022 27.4 7.6 18.4 0.0 1.0 36.8 42.0
5/10/2022 23.7 6.0 15.6 0.0 8.4 36.8 43.1
5/9/2022 20.6 6.7 13.6 1.0 24.0 36.8 44.6
5/8/2022 16.0 2.1 9.9 0.0 24.8 35.8 47.2
5/7/2022 15.3 5.8 10.4 0.0 35.8 35.8 42.3
5/6/2022 14.2 8.9 11.2 0.0 35.8 35.8 55.5
5/5/2022 15.9 3.4 10.4 0.0 35.8 35.8 65.7
5/4/2022 15.7 7.4 11.4 7.4 35.8 35.8 83.7
5/3/2022 11.3 4.2 8.5 15.6 28.8 28.4 95.3
5/2/2022 11.1 8.4 9.6 1.8 13.2 12.8 93.2
5/1/2022 9.4 3.8 7.9 11.0 18.6 11.0 75.9